sensor_id;sensor_type;location;lat;lon;timestamp;P1;durP1;ratioP1;P2;durP2;ratioP2
77324;SDS011;66387;53.440;10.390;2023-06-22T00:02:03;4.23;;;3.07;;
77324;SDS011;66387;53.440;10.390;2023-06-22T00:04:29;4.50;;;2.53;;
77324;SDS011;66387;53.440;10.390;2023-06-22T00:06:54;4.13;;;2.83;;
77324;SDS011;66387;53.440;10.390;2023-06-22T00:09:19;4.97;;;3.07;;
77324;SDS011;66387;53.440;10.390;2023-06-22T00:11:44;4.83;;;2.93;;
77324;SDS011;66387;53.440;10.390;2023-06-22T00:14:10;3.43;;;3.00;;
77324;SDS011;66387;53.440;10.390;2023-06-22T00:16:35;4.73;;;3.23;;
77324;SDS011;66387;53.440;10.390;2023-06-22T00:19:00;5.93;;;3.23;;
77324;SDS011;66387;53.440;10.390;2023-06-22T00:21:27;3.92;;;2.90;;
77324;SDS011;66387;53.440;10.390;2023-06-22T00:23:53;6.35;;;3.20;;
77324;SDS011;66387;53.440;10.390;2023-06-22T00:26:18;4.80;;;2.90;;
77324;SDS011;66387;53.440;10.390;2023-06-22T00:28:44;4.40;;;2.70;;
77324;SDS011;66387;53.440;10.390;2023-06-22T00:31:09;3.85;;;3.30;;
77324;SDS011;66387;53.440;10.390;2023-06-22T00:33:35;3.27;;;2.77;;
77324;SDS011;66387;53.440;10.390;2023-06-22T00:36:00;4.63;;;2.80;;
77324;SDS011;66387;53.440;10.390;2023-06-22T00:38:27;3.55;;;3.03;;
77324;SDS011;66387;53.440;10.390;2023-06-22T00:40:53;4.10;;;3.23;;
77324;SDS011;66387;53.440;10.390;2023-06-22T00:43:18;4.57;;;2.70;;
77324;SDS011;66387;53.440;10.390;2023-06-22T00:45:43;3.73;;;2.93;;
77324;SDS011;66387;53.440;10.390;2023-06-22T00:48:08;4.33;;;2.97;;
77324;SDS011;66387;53.440;10.390;2023-06-22T00:50:34;2.88;;;2.47;;
77324;SDS011;66387;53.440;10.390;2023-06-22T00:53:03;3.88;;;2.83;;
77324;SDS011;66387;53.440;10.390;2023-06-22T00:55:33;4.35;;;3.03;;
77324;SDS011;66387;53.440;10.390;2023-06-22T00:58:02;3.80;;;2.42;;
77324;SDS011;66387;53.440;10.390;2023-06-22T01:00:30;4.40;;;2.85;;
77324;SDS011;66387;53.440;10.390;2023-06-22T01:02:57;3.38;;;3.08;;
77324;SDS011;66387;53.440;10.390;2023-06-22T01:05:23;3.08;;;2.42;;
77324;SDS011;66387;53.440;10.390;2023-06-22T01:08:05;4.25;;;2.58;;
77324;SDS011;66387;53.440;10.390;2023-06-22T01:10:48;4.47;;;3.42;;
77324;SDS011;66387;53.440;10.390;2023-06-22T01:13:35;5.68;;;2.92;;
77324;SDS011;66387;53.440;10.390;2023-06-22T01:16:15;4.93;;;3.10;;
77324;SDS011;66387;53.440;10.390;2023-06-22T01:18:44;4.70;;;3.42;;
77324;SDS011;66387;53.440;10.390;2023-06-22T01:26:41;3.05;;;2.63;;
77324;SDS011;66387;53.440;10.390;2023-06-22T01:29:10;3.58;;;2.78;;
77324;SDS011;66387;53.440;10.390;2023-06-22T01:31:38;3.75;;;2.78;;
77324;SDS011;66387;53.440;10.390;2023-06-22T01:34:05;3.75;;;2.75;;
77324;SDS011;66387;53.440;10.390;2023-06-22T01:36:32;4.65;;;2.92;;
77324;SDS011;66387;53.440;10.390;2023-06-22T01:38:58;4.07;;;2.75;;
77324;SDS011;66387;53.440;10.390;2023-06-22T01:41:25;3.55;;;3.03;;
77324;SDS011;66387;53.440;10.390;2023-06-22T01:43:52;5.18;;;3.05;;
77324;SDS011;66387;53.440;10.390;2023-06-22T01:46:18;5.35;;;3.38;;
77324;SDS011;66387;53.440;10.390;2023-06-22T01:48:46;5.50;;;3.33;;
77324;SDS011;66387;53.440;10.390;2023-06-22T01:51:12;3.85;;;3.40;;
77324;SDS011;66387;53.440;10.390;2023-06-22T01:53:37;3.90;;;3.03;;
77324;SDS011;66387;53.440;10.390;2023-06-22T01:56:02;4.13;;;2.77;;
77324;SDS011;66387;53.440;10.390;2023-06-22T01:58:29;4.72;;;3.03;;
77324;SDS011;66387;53.440;10.390;2023-06-22T02:01:03;4.95;;;3.00;;
77324;SDS011;66387;53.440;10.390;2023-06-22T02:03:37;4.18;;;3.20;;
77324;SDS011;66387;53.440;10.390;2023-06-22T02:06:08;4.32;;;3.53;;
77324;SDS011;66387;53.440;10.390;2023-06-22T02:08:41;5.05;;;3.45;;
77324;SDS011;66387;53.440;10.390;2023-06-22T02:11:14;5.47;;;3.70;;
77324;SDS011;66387;53.440;10.390;2023-06-22T02:16:08;4.00;;;3.20;;
77324;SDS011;66387;53.440;10.390;2023-06-22T02:18:36;3.58;;;2.88;;
77324;SDS011;66387;53.440;10.390;2023-06-22T02:21:02;4.88;;;3.20;;
77324;SDS011;66387;53.440;10.390;2023-06-22T02:23:27;3.95;;;3.03;;
77324;SDS011;66387;53.440;10.390;2023-06-22T02:25:53;4.72;;;3.30;;
77324;SDS011;66387;53.440;10.390;2023-06-22T02:28:18;6.23;;;3.40;;
77324;SDS011;66387;53.440;10.390;2023-06-22T02:30:43;4.37;;;3.20;;
77324;SDS011;66387;53.440;10.390;2023-06-22T02:33:09;4.67;;;3.20;;
77324;SDS011;66387;53.440;10.390;2023-06-22T02:35:34;3.00;;;2.70;;
77324;SDS011;66387;53.440;10.390;2023-06-22T02:38:01;4.82;;;3.15;;
77324;SDS011;66387;53.440;10.390;2023-06-22T02:40:27;3.63;;;2.85;;
77324;SDS011;66387;53.440;10.390;2023-06-22T02:42:54;6.22;;;3.30;;
77324;SDS011;66387;53.440;10.390;2023-06-22T02:45:20;5.18;;;3.15;;
77324;SDS011;66387;53.440;10.390;2023-06-22T02:47:45;4.38;;;2.72;;
77324;SDS011;66387;53.440;10.390;2023-06-22T02:50:10;3.93;;;3.10;;
77324;SDS011;66387;53.440;10.390;2023-06-22T02:52:36;4.13;;;3.30;;
77324;SDS011;66387;53.440;10.390;2023-06-22T02:55:01;4.72;;;2.92;;
77324;SDS011;66387;53.440;10.390;2023-06-22T02:57:27;4.60;;;3.50;;
77324;SDS011;66387;53.440;10.390;2023-06-22T02:59:52;5.00;;;3.73;;
77324;SDS011;66387;53.440;10.390;2023-06-22T03:02:17;5.33;;;3.77;;
77324;SDS011;66387;53.440;10.390;2023-06-22T03:04:44;4.68;;;3.55;;
77324;SDS011;66387;53.440;10.390;2023-06-22T03:07:09;4.50;;;3.22;;
77324;SDS011;66387;53.440;10.390;2023-06-22T03:09:34;4.37;;;3.30;;
77324;SDS011;66387;53.440;10.390;2023-06-22T03:11:59;4.30;;;3.37;;
77324;SDS011;66387;53.440;10.390;2023-06-22T03:14:26;6.22;;;3.33;;
77324;SDS011;66387;53.440;10.390;2023-06-22T03:16:52;5.10;;;4.28;;
77324;SDS011;66387;53.440;10.390;2023-06-22T03:19:17;4.63;;;3.60;;
77324;SDS011;66387;53.440;10.390;2023-06-22T03:21:44;5.03;;;3.38;;
77324;SDS011;66387;53.440;10.390;2023-06-22T03:24:09;5.67;;;3.77;;
77324;SDS011;66387;53.440;10.390;2023-06-22T03:26:34;4.03;;;3.17;;
77324;SDS011;66387;53.440;10.390;2023-06-22T03:29:00;5.93;;;3.70;;
77324;SDS011;66387;53.440;10.390;2023-06-22T03:31:25;4.30;;;3.50;;
77324;SDS011;66387;53.440;10.390;2023-06-22T03:33:50;4.53;;;3.40;;
77324;SDS011;66387;53.440;10.390;2023-06-22T03:36:16;5.00;;;3.77;;
77324;SDS011;66387;53.440;10.390;2023-06-22T03:38:44;4.60;;;3.20;;
77324;SDS011;66387;53.440;10.390;2023-06-22T03:41:12;5.10;;;3.85;;
77324;SDS011;66387;53.440;10.390;2023-06-22T03:43:38;4.03;;;3.30;;
77324;SDS011;66387;53.440;10.390;2023-06-22T03:46:03;4.65;;;3.35;;
77324;SDS011;66387;53.440;10.390;2023-06-22T03:48:28;5.17;;;3.40;;
77324;SDS011;66387;53.440;10.390;2023-06-22T03:50:53;5.13;;;3.63;;
77324;SDS011;66387;53.440;10.390;2023-06-22T03:53:19;5.20;;;3.60;;
77324;SDS011;66387;53.440;10.390;2023-06-22T03:55:48;6.77;;;3.90;;
77324;SDS011;66387;53.440;10.390;2023-06-22T03:58:15;4.40;;;3.35;;
77324;SDS011;66387;53.440;10.390;2023-06-22T04:00:40;6.47;;;3.63;;
77324;SDS011;66387;53.440;10.390;2023-06-22T04:03:05;3.93;;;3.53;;
77324;SDS011;66387;53.440;10.390;2023-06-22T04:05:32;5.38;;;3.70;;
77324;SDS011;66387;53.440;10.390;2023-06-22T04:07:57;6.17;;;3.60;;
77324;SDS011;66387;53.440;10.390;2023-06-22T04:10:22;4.20;;;3.40;;
77324;SDS011;66387;53.440;10.390;2023-06-22T04:12:48;6.03;;;4.03;;
77324;SDS011;66387;53.440;10.390;2023-06-22T04:15:13;5.70;;;3.53;;
77324;SDS011;66387;53.440;10.390;2023-06-22T04:17:38;4.72;;;3.90;;
77324;SDS011;66387;53.440;10.390;2023-06-22T04:20:04;3.93;;;3.20;;
77324;SDS011;66387;53.440;10.390;2023-06-22T04:22:30;5.68;;;3.85;;
77324;SDS011;66387;53.440;10.390;2023-06-22T04:24:55;5.87;;;4.00;;
77324;SDS011;66387;53.440;10.390;2023-06-22T04:27:20;5.03;;;2.93;;
77324;SDS011;66387;53.440;10.390;2023-06-22T04:29:48;4.22;;;3.50;;
77324;SDS011;66387;53.440;10.390;2023-06-22T04:32:14;4.72;;;3.72;;
77324;SDS011;66387;53.440;10.390;2023-06-22T04:34:40;4.38;;;3.40;;
77324;SDS011;66387;53.440;10.390;2023-06-22T04:37:05;5.00;;;3.57;;
77324;SDS011;66387;53.440;10.390;2023-06-22T04:39:30;7.43;;;3.60;;
77324;SDS011;66387;53.440;10.390;2023-06-22T04:41:56;4.85;;;3.80;;
77324;SDS011;66387;53.440;10.390;2023-06-22T04:44:25;3.80;;;3.35;;
77324;SDS011;66387;53.440;10.390;2023-06-22T04:46:54;5.80;;;3.50;;
77324;SDS011;66387;53.440;10.390;2023-06-22T04:49:28;8.32;;;3.80;;
77324;SDS011;66387;53.440;10.390;2023-06-22T04:52:01;5.05;;;3.88;;
77324;SDS011;66387;53.440;10.390;2023-06-22T04:54:28;5.57;;;3.50;;
77324;SDS011;66387;53.440;10.390;2023-06-22T04:56:53;4.88;;;3.80;;
77324;SDS011;66387;53.440;10.390;2023-06-22T04:59:25;4.63;;;3.40;;
77324;SDS011;66387;53.440;10.390;2023-06-22T05:02:02;6.53;;;3.97;;
77324;SDS011;66387;53.440;10.390;2023-06-22T05:04:28;4.97;;;3.40;;
77324;SDS011;66387;53.440;10.390;2023-06-22T05:07:00;5.30;;;3.88;;
77324;SDS011;66387;53.440;10.390;2023-06-22T05:09:26;6.85;;;4.47;;
77324;SDS011;66387;53.440;10.390;2023-06-22T05:11:52;5.50;;;3.95;;
77324;SDS011;66387;53.440;10.390;2023-06-22T05:14:17;4.37;;;3.23;;
77324;SDS011;66387;53.440;10.390;2023-06-22T05:16:43;5.82;;;4.03;;
77324;SDS011;66387;53.440;10.390;2023-06-22T05:19:09;5.57;;;4.00;;
77324;SDS011;66387;53.440;10.390;2023-06-22T05:21:35;7.63;;;3.95;;
77324;SDS011;66387;53.440;10.390;2023-06-22T05:24:03;6.20;;;3.70;;
77324;SDS011;66387;53.440;10.390;2023-06-22T05:26:29;5.22;;;3.42;;
77324;SDS011;66387;53.440;10.390;2023-06-22T05:28:56;6.53;;;4.05;;
77324;SDS011;66387;53.440;10.390;2023-06-22T05:31:22;5.50;;;3.90;;
77324;SDS011;66387;53.440;10.390;2023-06-22T05:33:48;7.97;;;3.80;;
77324;SDS011;66387;53.440;10.390;2023-06-22T05:36:16;5.82;;;4.45;;
77324;SDS011;66387;53.440;10.390;2023-06-22T05:38:41;5.85;;;4.57;;
77324;SDS011;66387;53.440;10.390;2023-06-22T05:41:07;5.27;;;4.13;;
77324;SDS011;66387;53.440;10.390;2023-06-22T05:43:33;5.00;;;3.78;;
77324;SDS011;66387;53.440;10.390;2023-06-22T05:45:59;7.47;;;4.03;;
77324;SDS011;66387;53.440;10.390;2023-06-22T05:48:25;5.95;;;4.10;;
77324;SDS011;66387;53.440;10.390;2023-06-22T05:50:50;5.85;;;3.90;;
77324;SDS011;66387;53.440;10.390;2023-06-22T05:53:15;5.43;;;3.97;;
77324;SDS011;66387;53.440;10.390;2023-06-22T05:55:41;6.13;;;4.23;;
77324;SDS011;66387;53.440;10.390;2023-06-22T05:58:07;6.80;;;5.15;;
77324;SDS011;66387;53.440;10.390;2023-06-22T06:00:32;5.80;;;4.20;;
77324;SDS011;66387;53.440;10.390;2023-06-22T06:02:58;5.00;;;3.50;;
77324;SDS011;66387;53.440;10.390;2023-06-22T06:05:28;5.43;;;4.20;;
77324;SDS011;66387;53.440;10.390;2023-06-22T06:07:57;5.25;;;3.65;;
77324;SDS011;66387;53.440;10.390;2023-06-22T06:10:23;13.60;;;4.53;;
77324;SDS011;66387;53.440;10.390;2023-06-22T06:12:48;7.90;;;3.80;;
77324;SDS011;66387;53.440;10.390;2023-06-22T06:15:13;18.53;;;5.60;;
77324;SDS011;66387;53.440;10.390;2023-06-22T06:17:46;5.50;;;3.70;;
77324;SDS011;66387;53.440;10.390;2023-06-22T06:20:15;5.28;;;4.00;;
77324;SDS011;66387;53.440;10.390;2023-06-22T06:22:42;4.32;;;3.10;;
77324;SDS011;66387;53.440;10.390;2023-06-22T06:25:08;7.13;;;4.47;;
77324;SDS011;66387;53.440;10.390;2023-06-22T06:27:33;7.18;;;3.72;;
77324;SDS011;66387;53.440;10.390;2023-06-22T06:29:59;5.90;;;3.85;;
77324;SDS011;66387;53.440;10.390;2023-06-22T06:32:24;4.60;;;3.63;;
77324;SDS011;66387;53.440;10.390;2023-06-22T06:34:49;6.97;;;4.10;;
77324;SDS011;66387;53.440;10.390;2023-06-22T06:37:15;4.83;;;3.67;;
77324;SDS011;66387;53.440;10.390;2023-06-22T06:39:40;3.97;;;3.20;;
77324;SDS011;66387;53.440;10.390;2023-06-22T06:42:06;3.75;;;3.20;;
77324;SDS011;66387;53.440;10.390;2023-06-22T06:44:31;4.30;;;3.63;;
77324;SDS011;66387;53.440;10.390;2023-06-22T06:46:56;4.83;;;3.37;;
77324;SDS011;66387;53.440;10.390;2023-06-22T06:49:21;4.93;;;3.57;;
77324;SDS011;66387;53.440;10.390;2023-06-22T06:51:47;5.68;;;3.28;;
77324;SDS011;66387;53.440;10.390;2023-06-22T06:54:12;4.00;;;3.60;;
77324;SDS011;66387;53.440;10.390;2023-06-22T06:56:38;7.15;;;3.38;;
77324;SDS011;66387;53.440;10.390;2023-06-22T06:59:03;4.10;;;2.83;;
77324;SDS011;66387;53.440;10.390;2023-06-22T07:01:28;4.20;;;3.10;;
77324;SDS011;66387;53.440;10.390;2023-06-22T07:03:58;6.30;;;3.47;;
77324;SDS011;66387;53.440;10.390;2023-06-22T07:06:23;5.68;;;3.67;;
77324;SDS011;66387;53.440;10.390;2023-06-22T07:08:53;4.50;;;3.53;;
77324;SDS011;66387;53.440;10.390;2023-06-22T07:11:20;5.97;;;3.60;;
77324;SDS011;66387;53.440;10.390;2023-06-22T07:13:45;4.27;;;3.30;;
77324;SDS011;66387;53.440;10.390;2023-06-22T07:16:10;4.03;;;3.60;;
77324;SDS011;66387;53.440;10.390;2023-06-22T07:18:35;5.10;;;3.03;;
77324;SDS011;66387;53.440;10.390;2023-06-22T07:21:01;5.23;;;3.13;;
77324;SDS011;66387;53.440;10.390;2023-06-22T07:23:26;5.77;;;3.33;;
77324;SDS011;66387;53.440;10.390;2023-06-22T07:25:51;4.63;;;3.30;;
77324;SDS011;66387;53.440;10.390;2023-06-22T07:28:16;4.27;;;3.00;;
77324;SDS011;66387;53.440;10.390;2023-06-22T07:30:42;3.53;;;2.73;;
77324;SDS011;66387;53.440;10.390;2023-06-22T07:33:07;2.97;;;2.63;;
77324;SDS011;66387;53.440;10.390;2023-06-22T07:35:33;3.90;;;3.13;;
77324;SDS011;66387;53.440;10.390;2023-06-22T07:37:59;4.05;;;3.20;;
77324;SDS011;66387;53.440;10.390;2023-06-22T07:40:24;3.63;;;3.08;;
77324;SDS011;66387;53.440;10.390;2023-06-22T07:42:51;4.13;;;2.58;;
77324;SDS011;66387;53.440;10.390;2023-06-22T07:45:19;3.55;;;2.72;;
77324;SDS011;66387;53.440;10.390;2023-06-22T07:47:45;3.35;;;2.80;;
77324;SDS011;66387;53.440;10.390;2023-06-22T07:50:10;3.90;;;3.23;;
77324;SDS011;66387;53.440;10.390;2023-06-22T07:52:35;4.15;;;3.13;;
77324;SDS011;66387;53.440;10.390;2023-06-22T07:55:01;7.05;;;3.05;;
77324;SDS011;66387;53.440;10.390;2023-06-22T07:57:27;3.58;;;2.72;;
77324;SDS011;66387;53.440;10.390;2023-06-22T07:59:58;6.40;;;3.40;;
77324;SDS011;66387;53.440;10.390;2023-06-22T08:02:24;5.35;;;2.97;;
77324;SDS011;66387;53.440;10.390;2023-06-22T08:04:50;5.97;;;3.08;;
77324;SDS011;66387;53.440;10.390;2023-06-22T08:07:15;4.20;;;2.80;;
77324;SDS011;66387;53.440;10.390;2023-06-22T08:09:42;4.47;;;3.00;;
77324;SDS011;66387;53.440;10.390;2023-06-22T08:12:11;5.40;;;3.05;;
77324;SDS011;66387;53.440;10.390;2023-06-22T08:14:38;4.20;;;2.80;;
77324;SDS011;66387;53.440;10.390;2023-06-22T08:17:03;3.30;;;2.95;;
77324;SDS011;66387;53.440;10.390;2023-06-22T08:19:29;4.55;;;2.85;;
77324;SDS011;66387;53.440;10.390;2023-06-22T08:21:54;5.57;;;2.93;;
77324;SDS011;66387;53.440;10.390;2023-06-22T08:24:19;5.67;;;3.00;;
77324;SDS011;66387;53.440;10.390;2023-06-22T08:26:44;4.80;;;3.10;;
77324;SDS011;66387;53.440;10.390;2023-06-22T08:29:10;4.53;;;2.87;;
77324;SDS011;66387;53.440;10.390;2023-06-22T08:31:35;2.90;;;2.33;;
77324;SDS011;66387;53.440;10.390;2023-06-22T08:34:00;2.70;;;2.00;;
77324;SDS011;66387;53.440;10.390;2023-06-22T08:36:27;4.22;;;3.10;;
77324;SDS011;66387;53.440;10.390;2023-06-22T08:38:57;4.80;;;2.97;;
77324;SDS011;66387;53.440;10.390;2023-06-22T08:41:27;3.47;;;2.88;;
77324;SDS011;66387;53.440;10.390;2023-06-22T08:43:53;4.03;;;3.15;;
77324;SDS011;66387;53.440;10.390;2023-06-22T08:46:18;5.90;;;3.87;;
77324;SDS011;66387;53.440;10.390;2023-06-22T08:48:48;4.57;;;3.13;;
77324;SDS011;66387;53.440;10.390;2023-06-22T08:51:13;5.13;;;3.17;;
77324;SDS011;66387;53.440;10.390;2023-06-22T08:53:39;3.90;;;3.30;;
77324;SDS011;66387;53.440;10.390;2023-06-22T08:56:04;4.40;;;2.77;;
77324;SDS011;66387;53.440;10.390;2023-06-22T08:58:29;3.70;;;2.95;;
77324;SDS011;66387;53.440;10.390;2023-06-22T09:00:54;4.93;;;3.53;;
77324;SDS011;66387;53.440;10.390;2023-06-22T09:03:20;4.35;;;3.13;;
77324;SDS011;66387;53.440;10.390;2023-06-22T09:05:45;4.17;;;3.30;;
77324;SDS011;66387;53.440;10.390;2023-06-22T09:08:11;6.30;;;3.65;;
77324;SDS011;66387;53.440;10.390;2023-06-22T09:10:36;5.70;;;3.73;;
77324;SDS011;66387;53.440;10.390;2023-06-22T09:13:01;4.30;;;3.60;;
77324;SDS011;66387;53.440;10.390;2023-06-22T09:15:26;5.57;;;3.23;;
77324;SDS011;66387;53.440;10.390;2023-06-22T09:17:52;4.90;;;3.93;;
77324;SDS011;66387;53.440;10.390;2023-06-22T09:20:19;5.60;;;3.88;;
77324;SDS011;66387;53.440;10.390;2023-06-22T09:22:44;5.13;;;3.85;;
77324;SDS011;66387;53.440;10.390;2023-06-22T09:25:10;5.00;;;3.47;;
77324;SDS011;66387;53.440;10.390;2023-06-22T09:27:35;4.17;;;3.60;;
77324;SDS011;66387;53.440;10.390;2023-06-22T09:30:00;4.90;;;3.73;;
77324;SDS011;66387;53.440;10.390;2023-06-22T09:32:26;5.40;;;4.13;;
77324;SDS011;66387;53.440;10.390;2023-06-22T09:34:51;4.87;;;3.30;;
77324;SDS011;66387;53.440;10.390;2023-06-22T09:37:16;5.53;;;3.30;;
77324;SDS011;66387;53.440;10.390;2023-06-22T09:39:42;6.05;;;3.40;;
77324;SDS011;66387;53.440;10.390;2023-06-22T09:42:07;5.50;;;3.73;;
77324;SDS011;66387;53.440;10.390;2023-06-22T09:44:33;3.95;;;3.30;;
77324;SDS011;66387;53.440;10.390;2023-06-22T09:46:58;5.70;;;3.65;;
77324;SDS011;66387;53.440;10.390;2023-06-22T09:49:23;4.07;;;3.27;;
77324;SDS011;66387;53.440;10.390;2023-06-22T09:51:48;6.50;;;3.50;;
77324;SDS011;66387;53.440;10.390;2023-06-22T09:54:15;3.92;;;3.45;;
77324;SDS011;66387;53.440;10.390;2023-06-22T09:56:41;7.63;;;3.57;;
77324;SDS011;66387;53.440;10.390;2023-06-22T09:59:06;4.47;;;3.67;;
77324;SDS011;66387;53.440;10.390;2023-06-22T10:01:31;7.30;;;4.43;;
77324;SDS011;66387;53.440;10.390;2023-06-22T10:03:57;5.57;;;4.03;;
77324;SDS011;66387;53.440;10.390;2023-06-22T10:06:22;4.97;;;3.08;;
77324;SDS011;66387;53.440;10.390;2023-06-22T10:08:47;5.60;;;4.23;;
77324;SDS011;66387;53.440;10.390;2023-06-22T10:11:14;4.82;;;3.63;;
77324;SDS011;66387;53.440;10.390;2023-06-22T10:13:40;5.33;;;3.90;;
77324;SDS011;66387;53.440;10.390;2023-06-22T10:16:05;4.70;;;4.13;;
77324;SDS011;66387;53.440;10.390;2023-06-22T10:18:30;5.00;;;3.30;;
77324;SDS011;66387;53.440;10.390;2023-06-22T10:20:55;6.50;;;4.47;;
77324;SDS011;66387;53.440;10.390;2023-06-22T10:23:21;7.07;;;4.00;;
77324;SDS011;66387;53.440;10.390;2023-06-22T10:25:46;5.07;;;3.88;;
77324;SDS011;66387;53.440;10.390;2023-06-22T10:28:12;3.90;;;3.20;;
77324;SDS011;66387;53.440;10.390;2023-06-22T10:30:38;5.72;;;4.20;;
77324;SDS011;66387;53.440;10.390;2023-06-22T10:33:06;4.13;;;3.58;;
77324;SDS011;66387;53.440;10.390;2023-06-22T10:35:31;3.47;;;3.05;;
77324;SDS011;66387;53.440;10.390;2023-06-22T10:37:57;5.63;;;4.23;;
77324;SDS011;66387;53.440;10.390;2023-06-22T10:40:22;4.40;;;4.00;;
77324;SDS011;66387;53.440;10.390;2023-06-22T10:42:47;5.10;;;4.60;;
77324;SDS011;66387;53.440;10.390;2023-06-22T10:45:12;6.90;;;4.47;;
77324;SDS011;66387;53.440;10.390;2023-06-22T10:47:38;6.32;;;3.67;;
77324;SDS011;66387;53.440;10.390;2023-06-22T10:50:04;5.67;;;4.53;;
77324;SDS011;66387;53.440;10.390;2023-06-22T10:52:30;5.60;;;4.78;;
77324;SDS011;66387;53.440;10.390;2023-06-22T10:54:55;4.20;;;3.80;;
77324;SDS011;66387;53.440;10.390;2023-06-22T10:57:21;6.20;;;4.47;;
77324;SDS011;66387;53.440;10.390;2023-06-22T10:59:46;5.25;;;4.35;;
77324;SDS011;66387;53.440;10.390;2023-06-22T11:02:12;5.43;;;4.35;;
77324;SDS011;66387;53.440;10.390;2023-06-22T11:04:37;5.43;;;4.33;;
77324;SDS011;66387;53.440;10.390;2023-06-22T11:07:03;4.70;;;4.25;;
77324;SDS011;66387;53.440;10.390;2023-06-22T11:09:29;5.82;;;5.05;;
77324;SDS011;66387;53.440;10.390;2023-06-22T11:11:55;6.57;;;5.37;;
77324;SDS011;66387;53.440;10.390;2023-06-22T11:14:21;4.57;;;4.15;;
77324;SDS011;66387;53.440;10.390;2023-06-22T11:16:47;4.75;;;4.32;;
77324;SDS011;66387;53.440;10.390;2023-06-22T11:19:12;5.03;;;4.40;;
77324;SDS011;66387;53.440;10.390;2023-06-22T11:21:38;4.65;;;4.03;;
77324;SDS011;66387;53.440;10.390;2023-06-22T11:24:03;5.30;;;4.38;;
77324;SDS011;66387;53.440;10.390;2023-06-22T11:26:29;6.15;;;4.88;;
77324;SDS011;66387;53.440;10.390;2023-06-22T11:28:54;7.13;;;4.43;;
77324;SDS011;66387;53.440;10.390;2023-06-22T11:31:20;5.22;;;4.72;;
77324;SDS011;66387;53.440;10.390;2023-06-22T11:33:45;6.40;;;4.75;;
77324;SDS011;66387;53.440;10.390;2023-06-22T11:36:12;5.30;;;4.18;;
77324;SDS011;66387;53.440;10.390;2023-06-22T11:38:37;6.68;;;4.65;;
77324;SDS011;66387;53.440;10.390;2023-06-22T11:41:05;6.63;;;5.00;;
77324;SDS011;66387;53.440;10.390;2023-06-22T11:43:30;6.78;;;4.63;;
77324;SDS011;66387;53.440;10.390;2023-06-22T11:45:56;5.90;;;4.13;;
77324;SDS011;66387;53.440;10.390;2023-06-22T11:48:23;4.47;;;4.00;;
77324;SDS011;66387;53.440;10.390;2023-06-22T11:50:49;5.28;;;4.43;;
77324;SDS011;66387;53.440;10.390;2023-06-22T11:53:14;5.72;;;4.72;;
77324;SDS011;66387;53.440;10.390;2023-06-22T11:55:41;5.82;;;5.22;;
77324;SDS011;66387;53.440;10.390;2023-06-22T11:58:07;6.00;;;5.13;;
77324;SDS011;66387;53.440;10.390;2023-06-22T12:00:33;6.15;;;4.82;;
77324;SDS011;66387;53.440;10.390;2023-06-22T12:02:58;5.38;;;4.15;;
77324;SDS011;66387;53.440;10.390;2023-06-22T12:05:24;5.63;;;5.00;;
77324;SDS011;66387;53.440;10.390;2023-06-22T12:07:49;5.85;;;5.05;;
77324;SDS011;66387;53.440;10.390;2023-06-22T12:10:15;5.93;;;4.63;;
77324;SDS011;66387;53.440;10.390;2023-06-22T12:12:41;5.47;;;4.95;;
77324;SDS011;66387;53.440;10.390;2023-06-22T12:15:07;5.18;;;4.68;;
77324;SDS011;66387;53.440;10.390;2023-06-22T12:17:34;5.50;;;5.00;;
77324;SDS011;66387;53.440;10.390;2023-06-22T12:19:59;4.65;;;4.25;;
77324;SDS011;66387;53.440;10.390;2023-06-22T12:22:24;5.70;;;4.30;;
77324;SDS011;66387;53.440;10.390;2023-06-22T12:24:49;5.13;;;4.63;;
77324;SDS011;66387;53.440;10.390;2023-06-22T12:27:16;5.53;;;5.03;;
77324;SDS011;66387;53.440;10.390;2023-06-22T12:29:43;5.00;;;4.38;;
77324;SDS011;66387;53.440;10.390;2023-06-22T12:32:08;6.10;;;5.03;;
77324;SDS011;66387;53.440;10.390;2023-06-22T12:34:33;5.43;;;4.97;;
77324;SDS011;66387;53.440;10.390;2023-06-22T12:36:58;5.63;;;4.50;;
77324;SDS011;66387;53.440;10.390;2023-06-22T12:39:24;5.40;;;4.57;;
77324;SDS011;66387;53.440;10.390;2023-06-22T12:41:49;5.80;;;5.20;;
77324;SDS011;66387;53.440;10.390;2023-06-22T12:44:14;5.87;;;5.33;;
77324;SDS011;66387;53.440;10.390;2023-06-22T12:46:40;6.40;;;5.10;;
77324;SDS011;66387;53.440;10.390;2023-06-22T12:49:05;5.97;;;5.13;;
77324;SDS011;66387;53.440;10.390;2023-06-22T12:51:30;6.78;;;5.93;;
77324;SDS011;66387;53.440;10.390;2023-06-22T12:53:56;6.00;;;5.40;;
77324;SDS011;66387;53.440;10.390;2023-06-22T12:56:21;5.63;;;5.13;;
77324;SDS011;66387;53.440;10.390;2023-06-22T12:58:47;6.45;;;5.13;;
77324;SDS011;66387;53.440;10.390;2023-06-22T13:01:12;7.83;;;5.43;;
77324;SDS011;66387;53.440;10.390;2023-06-22T13:03:37;5.77;;;5.20;;
77324;SDS011;66387;53.440;10.390;2023-06-22T13:06:03;5.23;;;4.77;;
77324;SDS011;66387;53.440;10.390;2023-06-22T13:08:28;5.45;;;4.95;;
77324;SDS011;66387;53.440;10.390;2023-06-22T13:10:54;5.97;;;5.13;;
77324;SDS011;66387;53.440;10.390;2023-06-22T13:13:21;5.38;;;4.88;;
77324;SDS011;66387;53.440;10.390;2023-06-22T13:15:49;4.93;;;4.43;;
77324;SDS011;66387;53.440;10.390;2023-06-22T13:18:14;5.20;;;4.70;;
77324;SDS011;66387;53.440;10.390;2023-06-22T13:20:40;4.57;;;4.17;;
77324;SDS011;66387;53.440;10.390;2023-06-22T13:23:05;5.53;;;5.03;;
77324;SDS011;66387;53.440;10.390;2023-06-22T13:25:30;6.30;;;4.72;;
77324;SDS011;66387;53.440;10.390;2023-06-22T13:27:56;5.53;;;4.63;;
77324;SDS011;66387;53.440;10.390;2023-06-22T13:30:21;5.77;;;5.20;;
77324;SDS011;66387;53.440;10.390;2023-06-22T13:32:46;5.93;;;5.32;;
77324;SDS011;66387;53.440;10.390;2023-06-22T13:35:11;6.47;;;5.37;;
77324;SDS011;66387;53.440;10.390;2023-06-22T13:37:37;5.63;;;5.13;;
77324;SDS011;66387;53.440;10.390;2023-06-22T13:40:03;8.13;;;4.37;;
77324;SDS011;66387;53.440;10.390;2023-06-22T13:42:31;5.72;;;5.13;;
77324;SDS011;66387;53.440;10.390;2023-06-22T13:44:56;5.70;;;5.13;;
77324;SDS011;66387;53.440;10.390;2023-06-22T13:47:22;6.10;;;4.93;;
77324;SDS011;66387;53.440;10.390;2023-06-22T13:49:47;7.23;;;4.90;;
77324;SDS011;66387;53.440;10.390;2023-06-22T13:52:12;5.63;;;4.90;;
77324;SDS011;66387;53.440;10.390;2023-06-22T13:54:38;6.00;;;5.07;;
77324;SDS011;66387;53.440;10.390;2023-06-22T13:57:03;5.85;;;4.80;;
77324;SDS011;66387;53.440;10.390;2023-06-22T13:59:29;5.55;;;4.82;;
77324;SDS011;66387;53.440;10.390;2023-06-22T14:01:54;6.68;;;5.78;;
77324;SDS011;66387;53.440;10.390;2023-06-22T14:04:19;5.93;;;4.87;;
77324;SDS011;66387;53.440;10.390;2023-06-22T14:06:44;5.90;;;4.57;;
77324;SDS011;66387;53.440;10.390;2023-06-22T14:09:10;5.27;;;4.77;;
77324;SDS011;66387;53.440;10.390;2023-06-22T14:11:35;9.43;;;6.80;;
77324;SDS011;66387;53.440;10.390;2023-06-22T14:14:00;5.80;;;5.28;;
77324;SDS011;66387;53.440;10.390;2023-06-22T14:16:26;6.97;;;4.57;;
77324;SDS011;66387;53.440;10.390;2023-06-22T14:18:51;5.23;;;4.73;;
77324;SDS011;66387;53.440;10.390;2023-06-22T14:21:16;7.30;;;4.70;;
77324;SDS011;66387;53.440;10.390;2023-06-22T14:23:42;5.90;;;5.27;;
77324;SDS011;66387;53.440;10.390;2023-06-22T14:26:07;5.97;;;5.10;;
77324;SDS011;66387;53.440;10.390;2023-06-22T14:28:32;9.07;;;5.93;;
77324;SDS011;66387;53.440;10.390;2023-06-22T14:30:57;5.73;;;4.83;;
77324;SDS011;66387;53.440;10.390;2023-06-22T14:33:23;4.77;;;4.37;;
77324;SDS011;66387;53.440;10.390;2023-06-22T14:35:48;6.07;;;4.97;;